Kavkaz — UHLO — position and weather

sailwx.info

Track history (hours):
 
Tides and Currents Weather Stations Pressure Air Temp Water Temp Dewpoint Dewpoint Depression Visibility Wind Speed Wind Dir Waves Ship Positions

Kavkaz

Last reported at 2018-Jun-21 10:02 UTC. Time now 2018-Jun-22 17:02 UTC.
Position N 45°19' E 037°23'.

Length 122 m; draft 2.5 m.

Type: Tanker. MMSI: 273316330.

Date/timePositionNaut miles runAvg speedWind from/ knotsBaromVisibWave heightAir tempDewpointWater temp
2018-Jun-21 10:02N 45°19' E 037°23'0 0.0
2018-Jun-21 09:53N 45°19' E 037°23'5 0.3
2018-Jun-20 18:38N 45°22' E 037°17'1 5.3
2018-Jun-20 18:30N 45°23' E 037°16'3 5.4
2018-Jun-20 17:55N 45°24' E 037°12'2 5.5
2018-Jun-20 17:30N 45°25' E 037°09'3 5.5
2018-Jun-20 17:00N 45°26' E 037°06'4 5.6
2018-Jun-20 16:16N 45°28' E 037°00'2 5.6
2018-Jun-20 15:52N 45°28' E 036°57'2 5.5
2018-Jun-20 15:30N 45°29' E 036°55'3 5.3
2018-Jun-20 15:00N 45°29' E 036°51'3 5.3
2018-Jun-20 14:30N 45°28' E 036°47'2 4.9
2018-Jun-20 14:00N 45°27' E 036°44'3 5.0
2018-Jun-20 13:30N 45°25' E 036°42'2 4.5
2018-Jun-20 13:00N 45°23' E 036°42'0 0.8
2018-Jun-20 12:30N 45°22' E 036°42'0 0.0
2018-Jun-20 11:59N 45°22' E 036°42'0 0.0
2018-Jun-20 11:30N 45°22' E 036°42'0 0.0
2018-Jun-20 10:59N 45°22' E 036°42'0 0.0
2018-Jun-20 10:29N 45°22' E 036°42'0 0.0
2018-Jun-20 10:00N 45°22' E 036°42'0 0.0
2018-Jun-20 09:30N 45°22' E 036°42'0 0.0
2018-Jun-20 08:59N 45°22' E 036°42'0 0.0
2018-Jun-20 08:30N 45°22' E 036°42'0 0.0
2018-Jun-20 07:59N 45°22' E 036°42'0 0.0
2018-Jun-20 07:30N 45°22' E 036°42'0 0.0
2018-Jun-20 07:00N 45°22' E 036°42'0 0.0
2018-Jun-20 06:29N 45°22' E 036°42'0 0.0
2018-Jun-20 05:59N 45°22' E 036°42'0 0.0
2018-Jun-20 05:29N 45°22' E 036°42'0 0.0
2018-Jun-20 05:00N 45°22' E 036°42'0 0.0
2018-Jun-20 04:30N 45°22' E 036°42'0 0.0
2018-Jun-20 03:59N 45°22' E 036°42'0 0.1
2018-Jun-20 03:29N 45°22' E 036°42'0 0.0
2018-Jun-20 00:00N 45°22' E 036°42'0 0.0
2018-Jun-19 21:20N 45°22' E 036°42'0 0.0
2018-Jun-19 20:08N 45°22' E 036°42'0 0.0
2018-Jun-19 19:56N 45°22' E 036°42'0 0.0
2018-Jun-19 19:26N 45°22' E 036°42'0 0.0
2018-Jun-19 18:38N 45°22' E 036°42'0 0.0
2018-Jun-19 18:26N 45°22' E 036°42'0 0.0
2018-Jun-19 17:41N 45°22' E 036°42'0 0.0
2018-Jun-19 17:30N 45°22' E 036°42'0 0.0
2018-Jun-19 16:59N 45°22' E 036°42'0 0.0
2018-Jun-19 16:30N 45°22' E 036°42'0 0.0
2018-Jun-19 16:00N 45°22' E 036°42'0 0.0
2018-Jun-19 15:29N 45°22' E 036°42'0 0.0
2018-Jun-19 14:59N 45°22' E 036°42'0 0.0
2018-Jun-19 14:29N 45°22' E 036°42'0 0.0
2018-Jun-19 14:00N 45°22' E 036°42'0 0.0
2018-Jun-19 13:29N 45°22' E 036°42'0 0.0
2018-Jun-19 12:59N 45°22' E 036°42'0 0.0
2018-Jun-19 12:29N 45°22' E 036°42'0 0.0
2018-Jun-19 11:57N 45°22' E 036°42'0 0.0
2018-Jun-19 11:30N 45°22' E 036°42'0 0.0
2018-Jun-19 11:00N 45°22' E 036°42'0 0.0
2018-Jun-19 10:30N 45°22' E 036°42'0 0.0
2018-Jun-19 09:56N 45°22' E 036°42'0 0.0
2018-Jun-19 09:30N 45°22' E 036°42'0 0.0
2018-Jun-19 08:57N 45°22' E 036°42'0 0.0
2018-Jun-19 08:30N 45°22' E 036°42'0 0.0
2018-Jun-19 08:00N 45°22' E 036°42'0 0.0
2018-Jun-19 07:29N 45°22' E 036°42'0 0.0
2018-Jun-19 06:59N 45°22' E 036°42'0 0.0
2018-Jun-19 06:30N 45°22' E 036°42'0 0.0
2018-Jun-19 05:59N 45°22' E 036°42'0 0.0
2018-Jun-19 05:30N 45°22' E 036°42'0 0.0
2018-Jun-19 04:56N 45°22' E 036°42'0 0.0
2018-Jun-19 04:30N 45°22' E 036°42'0 0.0
2018-Jun-19 03:56N 45°22' E 036°42'0 0.0
2018-Jun-19 00:11N 45°22' E 036°42'0 0.0
2018-Jun-18 21:45N 45°22' E 036°42'0 0.0
2018-Jun-18 21:23N 45°22' E 036°42'0 0.0
2018-Jun-18 16:18N 45°22' E 036°42'0 0.0
2018-Jun-18 15:54N 45°22' E 036°42'0 0.0
2018-Jun-18 15:29N 45°22' E 036°42'0 0.0
2018-Jun-18 15:00N 45°22' E 036°42'0 0.0
2018-Jun-18 14:29N 45°22' E 036°42'0 0.0
2018-Jun-18 14:00N 45°22' E 036°42'0 0.0
2018-Jun-18 13:29N 45°22' E 036°42'0 0.0
2018-Jun-18 13:00N 45°22' E 036°42'0 0.0
2018-Jun-18 12:29N 45°22' E 036°42'0 0.0
2018-Jun-18 12:00N 45°22' E 036°42'0 0.0
2018-Jun-18 11:20N 45°22' E 036°42'0 0.0
2018-Jun-18 11:00N 45°22' E 036°42'0 0.0
2018-Jun-18 10:30N 45°22' E 036°42'0 0.0
2018-Jun-18 09:59N 45°22' E 036°42'0 0.0
2018-Jun-18 09:30N 45°22' E 036°42'0 0.0
2018-Jun-18 08:59N 45°22' E 036°42'0 0.0
2018-Jun-18 08:29N 45°22' E 036°42'0 0.0
2018-Jun-18 08:00N 45°22' E 036°42'0 0.0
2018-Jun-18 07:27N 45°22' E 036°42'0 0.0
2018-Jun-18 07:00N 45°22' E 036°42'0 0.0
2018-Jun-18 06:29N 45°22' E 036°42'0 0.0
2018-Jun-18 05:59N 45°22' E 036°42'0 0.0
2018-Jun-18 05:29N 45°22' E 036°42'0 0.0
2018-Jun-18 04:59N 45°22' E 036°42'0 0.0
2018-Jun-18 04:29N 45°22' E 036°42'0 0.0
2018-Jun-18 03:59N 45°22' E 036°42'0 0.0
2018-Jun-18 03:29N 45°22' E 036°42'0 0.0
2018-Jun-18 02:59N 45°22' E 036°42'0 0.0
2018-Jun-18 02:29N 45°22' E 036°42'0 0.0
2018-Jun-18 01:59N 45°22' E 036°42'0 0.0
2018-Jun-18 01:29N 45°22' E 036°42'0 0.0
2018-Jun-18 00:59N 45°22' E 036°42'0 0.0
2018-Jun-18 00:29N 45°22' E 036°42'0 0.0
2018-Jun-17 23:53N 45°22' E 036°42'0 0.0
2018-Jun-17 23:26N 45°22' E 036°42'0 0.0
2018-Jun-17 22:59N 45°22' E 036°42'0 0.0
2018-Jun-17 22:23N 45°22' E 036°42'0 0.0
2018-Jun-17 21:59N 45°22' E 036°42'0 0.0
2018-Jun-17 21:26N 45°22' E 036°42'0 0.0
2018-Jun-17 20:56N 45°22' E 036°42'0 0.0
2018-Jun-17 20:29N 45°22' E 036°42'0 0.0
2018-Jun-17 19:59N 45°22' E 036°42'0 0.0
2018-Jun-17 19:29N 45°22' E 036°42'0 0.0
2018-Jun-17 18:59N 45°22' E 036°42'0 0.0
2018-Jun-17 18:20N 45°22' E 036°42'0 0.0
2018-Jun-17 16:59N 45°22' E 036°42'0 0.0
2018-Jun-17 16:20N 45°22' E 036°42'0 0.0
2018-Jun-17 15:50N 45°22' E 036°42'0 0.0
2018-Jun-17 15:29N 45°22' E 036°42'0 0.0
2018-Jun-17 14:59N 45°22' E 036°42'0 0.0
2018-Jun-17 14:29N 45°22' E 036°42'0 0.0
2018-Jun-17 13:59N 45°22' E 036°42'0 0.0
2018-Jun-17 13:26N 45°22' E 036°42'0 0.0
2018-Jun-17 12:59N 45°22' E 036°42'0 0.0
2018-Jun-17 12:26N 45°22' E 036°42'0 0.0
2018-Jun-17 11:50N 45°22' E 036°42'0 0.0
2018-Jun-17 11:29N 45°22' E 036°42'0 0.0
2018-Jun-17 10:59N 45°22' E 036°42'0 0.0
2018-Jun-17 10:20N 45°22' E 036°42'0 0.0
2018-Jun-17 09:53N 45°22' E 036°42'0 0.0
2018-Jun-17 09:26N 45°22' E 036°42'0 0.0
2018-Jun-17 08:56N 45°22' E 036°41'0 0.0
2018-Jun-17 08:29N 45°22' E 036°41'0 0.0
2018-Jun-17 07:32N 45°22' E 036°42'0 0.0
2018-Jun-17 07:14N 45°22' E 036°42'0 0.0
2018-Jun-17 06:47N 45°22' E 036°41'0 0.0
2018-Jun-17 06:26N 45°22' E 036°41'0 0.0
2018-Jun-17 05:50N 45°22' E 036°42'0 0.0
2018-Jun-17 05:23N 45°22' E 036°42'0 0.0
2018-Jun-17 04:59N 45°22' E 036°42'0 0.0
2018-Jun-17 04:26N 45°22' E 036°42'0 0.0
2018-Jun-17 03:56N 45°22' E 036°42'0 0.0
2018-Jun-17 03:29N 45°22' E 036°42'0 0.0
2018-Jun-17 02:41N 45°22' E 036°42'0 0.1
2018-Jun-17 02:23N 45°22' E 036°42'0 0.0
2018-Jun-17 01:50N 45°22' E 036°42'0 0.0
2018-Jun-17 01:26N 45°22' E 036°42'0 0.0
2018-Jun-17 00:59N 45°22' E 036°42'0 0.0
2018-Jun-17 00:29N 45°22' E 036°42'0 0.0
2018-Jun-16 23:59N 45°22' E 036°42'0 0.0
2018-Jun-16 23:29N 45°22' E 036°42'0 0.0
2018-Jun-16 22:59N 45°22' E 036°42'0 0.0
2018-Jun-16 22:05N 45°22' E 036°42'0 0.1
2018-Jun-16 21:47N 45°22' E 036°42'0 0.0
2018-Jun-16 21:29N 45°22' E 036°42'0 0.0
2018-Jun-16 20:56N 45°22' E 036°42'0 0.0
2018-Jun-16 20:29N 45°22' E 036°42'0 0.0
2018-Jun-16 19:59N 45°22' E 036°42'0 0.0
2018-Jun-16 19:26N 45°22' E 036°42'0 0.0
2018-Jun-16 18:59N 45°22' E 036°42'0 0.1
2018-Jun-16 18:29N 45°22' E 036°42'0 0.0
2018-Jun-16 17:59N 45°22' E 036°42'0 0.1
2018-Jun-16 17:29N 45°22' E 036°42'0 0.1
2018-Jun-16 16:59N 45°22' E 036°42'0 0.1
2018-Jun-16 16:29N 45°22' E 036°42'0 0.0
2018-Jun-16 15:59N 45°22' E 036°42'0 0.1
2018-Jun-16 15:29N 45°22' E 036°42'0 0.1
2018-Jun-16 14:56N 45°22' E 036°42'0 0.1
2018-Jun-16 14:29N 45°22' E 036°42'0 0.0
2018-Jun-16 13:59N 45°22' E 036°42'0 0.1
2018-Jun-16 13:29N 45°22' E 036°42'0 0.0
2018-Jun-16 12:59N 45°22' E 036°42'0 0.0
2018-Jun-16 12:29N 45°22' E 036°42'0 0.0
2018-Jun-16 11:59N 45°22' E 036°42'0 0.0
2018-Jun-16 11:29N 45°22' E 036°42'0 0.0
2018-Jun-16 10:59N 45°22' E 036°42'0 0.0
2018-Jun-16 10:29N 45°22' E 036°42'0 0.1
2018-Jun-16 09:59N 45°22' E 036°42'0 0.0
2018-Jun-16 09:29N 45°22' E 036°42'0 0.1
2018-Jun-16 08:59N 45°22' E 036°42'0 0.1
2018-Jun-16 08:29N 45°22' E 036°42'0 0.0
2018-Jun-16 07:59N 45°22' E 036°42'0 0.0
2018-Jun-16 07:29N 45°22' E 036°42'0 0.0
2018-Jun-16 06:59N 45°22' E 036°42'0 0.0
2018-Jun-16 06:29N 45°22' E 036°42'0 0.0
2018-Jun-16 05:53N 45°22' E 036°42'0 0.0
2018-Jun-16 05:29N 45°22' E 036°42'0 0.0
2018-Jun-16 04:59N 45°22' E 036°42'0 0.0
2018-Jun-16 04:29N 45°22' E 036°42'1 1.9
2018-Jun-16 04:01N 45°22' E 036°41'2 4.7
2018-Jun-16 03:30N 45°20' E 036°38'2 5.0
2018-Jun-16 03:00N 45°19' E 036°35'3 5.4
2018-Jun-16 02:30N 45°19' E 036°31'2 5.0
2018-Jun-16 02:00N 45°17' E 036°29'2 3.9
2018-Jun-16 01:28N 45°15' E 036°29'1 2.3
2018-Jun-16 00:59N 45°14' E 036°30'0 0.1
2018-Jun-16 00:29N 45°14' E 036°30'0 0.0
2018-Jun-15 23:56N 45°14' E 036°30'0 0.0
2018-Jun-15 23:26N 45°14' E 036°30'0 0.0
2018-Jun-15 22:59N 45°14' E 036°30'0 0.0
2018-Jun-15 22:20N 45°14' E 036°30'0 0.0
2018-Jun-15 21:59N 45°14' E 036°30'0 0.0
2018-Jun-15 21:23N 45°14' E 036°30'0 0.0
2018-Jun-15 20:56N 45°14' E 036°30'0 0.0
2018-Jun-15 20:29N 45°14' E 036°30'0 0.0
2018-Jun-15 19:56N 45°14' E 036°30'0 0.0
2018-Jun-15 19:29N 45°14' E 036°30'0 0.1
2018-Jun-15 18:56N 45°14' E 036°30'0 0.0
2018-Jun-15 18:20N 45°14' E 036°30'0 0.0
2018-Jun-15 16:38N 45°14' E 036°30'0 0.0
2018-Jun-15 16:29N 45°14' E 036°30'0 0.0
2018-Jun-15 15:59N 45°14' E 036°30'0 0.0
2018-Jun-15 15:29N 45°14' E 036°30'0 0.0
2018-Jun-15 14:59N 45°14' E 036°30'0 0.0
2018-Jun-15 14:29N 45°14' E 036°30'0 0.1
2018-Jun-15 12:50N 45°14' E 036°30'6 2.4
2018-Jun-15 10:20N 45°09' E 036°34'0 0.0
2018-Jun-15 09:08N 45°09' E 036°34'0 0.0
2018-Jun-15 08:38N 45°09' E 036°34'0 0.1
2018-Jun-15 08:23N 45°08' E 036°34'0 0.0
2018-Jun-15 07:41N 45°09' E 036°34'0 0.0
2018-Jun-15 07:26N 45°09' E 036°34'0 0.0
2018-Jun-15 06:56N 45°09' E 036°34'0 0.0
2018-Jun-15 06:05N 45°09' E 036°34'0 0.0
2018-Jun-15 05:53N 45°09' E 036°34'0 0.0
2018-Jun-15 05:29N 45°09' E 036°34'0 0.0
2018-Jun-15 04:50N 45°09' E 036°34'0 0.0
2018-Jun-15 04:26N 45°09' E 036°34'0 0.1
2018-Jun-15 03:56N 45°08' E 036°34'0 0.0
2018-Jun-15 03:26N 45°08' E 036°34'0 0.0
2018-Jun-15 02:59N 45°08' E 036°34'0 0.0
2018-Jun-15 02:08N 45°08' E 036°34'0 0.0
2018-Jun-15 01:35N 45°08' E 036°34'0 0.0
2018-Jun-15 01:17N 45°08' E 036°34'3 0.7
2018-Jun-14 21:05N 45°11' E 036°32'0 1.4
2018-Jun-14 20:59N 45°11' E 036°32'0 0.1
2018-Jun-14 20:29N 45°11' E 036°32'0 0.0
2018-Jun-14 19:59N 45°11' E 036°32'0 0.0
2018-Jun-14 19:29N 45°11' E 036°32'0 0.0
2018-Jun-14 18:59N 45°11' E 036°32'0 0.0
2018-Jun-14 18:29N 45°11' E 036°32'0 0.0
2018-Jun-14 17:56N 45°11' E 036°32'0 0.0
2018-Jun-14 17:29N 45°11' E 036°32'0 0.0
2018-Jun-14 16:59N 45°11' E 036°32'0 0.0
2018-Jun-14 16:29N 45°11' E 036°32'0 0.0
2018-Jun-14 15:59N 45°11' E 036°32'0 0.0
2018-Jun-14 15:29N 45°11' E 036°32'0 0.0
2018-Jun-14 14:59N 45°11' E 036°32'0 0.0
2018-Jun-14 14:29N 45°11' E 036°32'0 0.0
2018-Jun-14 13:59N 45°11' E 036°32'0 0.0
2018-Jun-14 13:29N 45°11' E 036°32'0 0.0
2018-Jun-14 12:59N 45°11' E 036°32'0 0.0
2018-Jun-14 12:26N 45°11' E 036°32'0 0.0
2018-Jun-14 11:59N 45°11' E 036°32'0 0.0
2018-Jun-14 11:26N 45°11' E 036°32'0 0.0
2018-Jun-14 10:59N 45°11' E 036°32'0 0.0
2018-Jun-14 10:26N 45°11' E 036°32'0 0.0
2018-Jun-14 09:59N 45°11' E 036°32'0 0.0
2018-Jun-14 09:26N 45°11' E 036°32'0 0.0
2018-Jun-14 08:59N 45°11' E 036°32'0 0.0
2018-Jun-14 08:29N 45°11' E 036°32'0 0.0
2018-Jun-14 07:59N 45°11' E 036°32'0 0.0
2018-Jun-14 07:29N 45°11' E 036°32'0 0.0
2018-Jun-14 06:59N 45°11' E 036°32'0 0.0
2018-Jun-14 06:29N 45°11' E 036°32'0 0.0
2018-Jun-14 05:53N 45°11' E 036°32'0 0.0
2018-Jun-14 05:29N 45°11' E 036°32'0 0.0
2018-Jun-14 04:56N 45°11' E 036°32'0 0.0
2018-Jun-14 04:29N 45°11' E 036°32'0 0.0
2018-Jun-14 03:59N 45°11' E 036°32'0 0.0
2018-Jun-14 03:29N 45°11' E 036°32'0 0.0
2018-Jun-14 02:59N 45°11' E 036°32'0 0.0
2018-Jun-13 18:38N 45°11' E 036°32'0 0.0
2018-Jun-13 18:17N 45°11' E 036°32'0 0.0
2018-Jun-13 17:56N 45°11' E 036°32'0 0.0
2018-Jun-13 17:29N 45°11' E 036°32'0 0.1
2018-Jun-13 16:53N 45°11' E 036°32'0 0.1
2018-Jun-13 16:29N 45°11' E 036°32'0 0.0
2018-Jun-13 15:59N 45°11' E 036°32'0 0.0
2018-Jun-13 15:29N 45°11' E 036°32'0 0.0
2018-Jun-13 14:59N 45°11' E 036°32'0 0.0
2018-Jun-13 14:26N 45°11' E 036°32'0 0.0
2018-Jun-13 13:44N 45°11' E 036°32'0 0.0
2018-Jun-13 13:29N 45°11' E 036°32'0 0.0
2018-Jun-13 12:59N 45°11' E 036°32'0 0.0
2018-Jun-13 12:29N 45°11' E 036°32'0 0.0
2018-Jun-13 11:59N 45°11' E 036°32'0 0.0
2018-Jun-13 11:23N 45°11' E 036°32'0 0.0
2018-Jun-13 10:59N 45°11' E 036°32'0 0.0
2018-Jun-13 10:29N 45°11' E 036°32'0 0.0
2018-Jun-13 09:59N 45°11' E 036°32'0 0.0
2018-Jun-13 09:26N 45°11' E 036°32'0 0.0
2018-Jun-13 08:44N 45°11' E 036°32'0 0.0
2018-Jun-13 08:23N 45°11' E 036°32'0 0.0
2018-Jun-13 07:56N 45°11' E 036°32'0 0.0
2018-Jun-13 07:26N 45°11' E 036°32'0 0.0
2018-Jun-13 06:47N 45°11' E 036°32'0 0.0
2018-Jun-13 06:29N 45°11' E 036°32'0 0.0
2018-Jun-13 05:59N 45°11' E 036°32'0 0.0
2018-Jun-13 05:29N 45°11' E 036°32'0 0.0
2018-Jun-13 04:59N 45°11' E 036°32'0 0.0
2018-Jun-13 04:29N 45°11' E 036°32'0 0.0
2018-Jun-13 03:59N 45°11' E 036°32'0 0.0
2018-Jun-13 03:29N 45°11' E 036°32'0 0.1
2018-Jun-13 02:53N 45°11' E 036°32'0 0.0
2018-Jun-13 02:29N 45°11' E 036°32'0 0.0
2018-Jun-13 01:56N 45°11' E 036°32'0 0.0
2018-Jun-13 01:29N 45°11' E 036°32'0 0.0
2018-Jun-13 00:53N 45°11' E 036°32'0 0.0
2018-Jun-13 00:29N 45°11' E 036°32'0 0.0
2018-Jun-12 23:59N 45°11' E 036°32'0 0.0
2018-Jun-12 16:35N 45°11' E 036°32'0 0.0
2018-Jun-12 16:23N 45°11' E 036°32'0 0.0
2018-Jun-12 15:56N 45°11' E 036°32'0 0.0
2018-Jun-12 15:26N 45°11' E 036°32'0 0.0
2018-Jun-12 14:59N 45°11' E 036°32'0 0.0
2018-Jun-12 14:11N 45°11' E 036°32'0 0.0
2018-Jun-12 13:53N 45°11' E 036°32'0 0.0
2018-Jun-12 13:23N 45°11' E 036°32'0 0.0
2018-Jun-12 12:53N 45°11' E 036°32'0 0.0
2018-Jun-12 12:29N 45°11' E 036°32'0 0.0
2018-Jun-12 11:59N 45°11' E 036°32'0 0.0
2018-Jun-12 11:29N 45°11' E 036°32'0 0.0
2018-Jun-12 10:59N 45°11' E 036°32'0 0.0
2018-Jun-12 10:29N 45°11' E 036°32'0 0.0
2018-Jun-12 09:56N 45°11' E 036°32'0 0.0
2018-Jun-12 09:29N 45°11' E 036°32'0 0.0
2018-Jun-12 08:59N 45°11' E 036°32'0 0.0
2018-Jun-12 08:29N 45°11' E 036°32'0 0.0
2018-Jun-12 07:59N 45°11' E 036°32'0 0.0
2018-Jun-12 07:29N 45°11' E 036°32'0 0.0
2018-Jun-12 06:56N 45°11' E 036°32'0 0.0
2018-Jun-12 06:29N 45°11' E 036°32'0 0.0
2018-Jun-12 05:56N 45°11' E 036°32'0 0.0
2018-Jun-12 05:26N 45°11' E 036°32'0 0.0
2018-Jun-12 04:59N 45°11' E 036°32'0 0.0
2018-Jun-12 04:29N 45°11' E 036°32'0 0.0
2018-Jun-12 03:59N 45°11' E 036°32'0 0.0
2018-Jun-12 03:26N 45°11' E 036°32'0 0.0
2018-Jun-12 02:56N 45°11' E 036°32'0 0.0
2018-Jun-12 02:29N 45°11' E 036°32'0 0.0
2018-Jun-12 01:59N 45°11' E 036°32'0 0.0
2018-Jun-12 01:23N 45°11' E 036°32'0 0.0
2018-Jun-12 00:53N 45°11' E 036°32'0 0.0
2018-Jun-12 00:08N 45°11' E 036°32'0 0.0
2018-Jun-11 23:59N 45°11' E 036°32'0 0.0
2018-Jun-11 23:29N 45°11' E 036°32'0 0.0
2018-Jun-11 21:29N 45°11' E 036°32'0 0.0
2018-Jun-11 20:59N 45°11' E 036°32'0 0.0
2018-Jun-11 20:20N 45°11' E 036°32'0 0.0
2018-Jun-11 19:53N 45°11' E 036°32'0 0.0
2018-Jun-11 19:29N 45°11' E 036°32'0 0.0
2018-Jun-11 18:56N 45°11' E 036°32'0 0.0
2018-Jun-11 18:29N 45°11' E 036°32'0 0.0
2018-Jun-11 17:59N 45°11' E 036°32'0 0.0
2018-Jun-11 17:29N 45°11' E 036°32'0 0.0
2018-Jun-11 16:56N 45°11' E 036°32'0 0.0
2018-Jun-11 16:29N 45°11' E 036°32'0 0.0
2018-Jun-11 15:53N 45°11' E 036°32'0 0.0
2018-Jun-11 15:29N 45°11' E 036°32'0 0.0
2018-Jun-11 14:59N 45°11' E 036°32'0 0.0
2018-Jun-11 14:29N 45°11' E 036°32'0 0.0
2018-Jun-11 13:53N 45°11' E 036°32'0 0.0
2018-Jun-11 13:29N 45°11' E 036°32'0 0.0
2018-Jun-11 12:56N 45°11' E 036°32'0 0.0
2018-Jun-11 12:29N 45°11' E 036°32'0 0.0
2018-Jun-11 11:59N 45°11' E 036°32'0 0.0
2018-Jun-11 11:29N 45°11' E 036°32'0 0.0
2018-Jun-11 10:59N 45°11' E 036°32'0 0.0
2018-Jun-11 10:29N 45°11' E 036°32'  
Track history (hours):
 
Tides and Currents Weather Stations Pressure Air Temp Water Temp Dewpoint Dewpoint Depression Visibility Wind Speed Wind Dir Waves Ship Positions

Kavkaz

Last reported at 2018-Jun-21 10:02 UTC. Time now 2018-Jun-22 17:02 UTC.
Position N 45°19' E 037°23'.

Length 122 m; draft 2.5 m.

Type: Tanker. MMSI: 273316330.

Date/timePositionNaut miles runAvg speedWind from/ knotsBaromVisibWave heightAir tempDewpointWater temp
2018-Jun-21 10:02N 45°19' E 037°23'0 0.0
2018-Jun-21 09:53N 45°19' E 037°23'5 0.3
2018-Jun-20 18:38N 45°22' E 037°17'1 5.3
2018-Jun-20 18:30N 45°23' E 037°16'3 5.4
2018-Jun-20 17:55N 45°24' E 037°12'2 5.5
2018-Jun-20 17:30N 45°25' E 037°09'3 5.5
2018-Jun-20 17:00N 45°26' E 037°06'4 5.6
2018-Jun-20 16:16N 45°28' E 037°00'2 5.6
2018-Jun-20 15:52N 45°28' E 036°57'2 5.5
2018-Jun-20 15:30N 45°29' E 036°55'3 5.3
2018-Jun-20 15:00N 45°29' E 036°51'3 5.3
2018-Jun-20 14:30N 45°28' E 036°47'2 4.9
2018-Jun-20 14:00N 45°27' E 036°44'3 5.0
2018-Jun-20 13:30N 45°25' E 036°42'2 4.5
2018-Jun-20 13:00N 45°23' E 036°42'0 0.8
2018-Jun-20 12:30N 45°22' E 036°42'0 0.0
2018-Jun-20 11:59N 45°22' E 036°42'0 0.0
2018-Jun-20 11:30N 45°22' E 036°42'0 0.0
2018-Jun-20 10:59N 45°22' E 036°42'0 0.0
2018-Jun-20 10:29N 45°22' E 036°42'0 0.0
2018-Jun-20 10:00N 45°22' E 036°42'0 0.0
2018-Jun-20 09:30N 45°22' E 036°42'0 0.0
2018-Jun-20 08:59N 45°22' E 036°42'0 0.0
2018-Jun-20 08:30N 45°22' E 036°42'0 0.0
2018-Jun-20 07:59N 45°22' E 036°42'0 0.0
2018-Jun-20 07:30N 45°22' E 036°42'0 0.0
2018-Jun-20 07:00N 45°22' E 036°42'0 0.0
2018-Jun-20 06:29N 45°22' E 036°42'0 0.0
2018-Jun-20 05:59N 45°22' E 036°42'0 0.0
2018-Jun-20 05:29N 45°22' E 036°42'0 0.0
2018-Jun-20 05:00N 45°22' E 036°42'0 0.0
2018-Jun-20 04:30N 45°22' E 036°42'0 0.0
2018-Jun-20 03:59N 45°22' E 036°42'0 0.1
2018-Jun-20 03:29N 45°22' E 036°42'0 0.0
2018-Jun-20 00:00N 45°22' E 036°42'0 0.0
2018-Jun-19 21:20N 45°22' E 036°42'0 0.0
2018-Jun-19 20:08N 45°22' E 036°42'0 0.0
2018-Jun-19 19:56N 45°22' E 036°42'0 0.0
2018-Jun-19 19:26N 45°22' E 036°42'0 0.0
2018-Jun-19 18:38N 45°22' E 036°42'0 0.0
2018-Jun-19 18:26N 45°22' E 036°42'0 0.0
2018-Jun-19 17:41N 45°22' E 036°42'0 0.0
2018-Jun-19 17:30N 45°22' E 036°42'0 0.0
2018-Jun-19 16:59N 45°22' E 036°42'0 0.0
2018-Jun-19 16:30N 45°22' E 036°42'0 0.0
2018-Jun-19 16:00N 45°22' E 036°42'0 0.0
2018-Jun-19 15:29N 45°22' E 036°42'0 0.0
2018-Jun-19 14:59N 45°22' E 036°42'0 0.0
2018-Jun-19 14:29N 45°22' E 036°42'0 0.0
2018-Jun-19 14:00N 45°22' E 036°42'0 0.0
2018-Jun-19 13:29N 45°22' E 036°42'0 0.0
2018-Jun-19 12:59N 45°22' E 036°42'0 0.0
2018-Jun-19 12:29N 45°22' E 036°42'0 0.0
2018-Jun-19 11:57N 45°22' E 036°42'0 0.0
2018-Jun-19 11:30N 45°22' E 036°42'0 0.0
2018-Jun-19 11:00N 45°22' E 036°42'0 0.0
2018-Jun-19 10:30N 45°22' E 036°42'0 0.0
2018-Jun-19 09:56N 45°22' E 036°42'0 0.0
2018-Jun-19 09:30N 45°22' E 036°42'0 0.0
2018-Jun-19 08:57N 45°22' E 036°42'0 0.0
2018-Jun-19 08:30N 45°22' E 036°42'0 0.0
2018-Jun-19 08:00N 45°22' E 036°42'0 0.0
2018-Jun-19 07:29N 45°22' E 036°42'0 0.0
2018-Jun-19 06:59N 45°22' E 036°42'0 0.0
2018-Jun-19 06:30N 45°22' E 036°42'0 0.0
2018-Jun-19 05:59N 45°22' E 036°42'0 0.0
2018-Jun-19 05:30N 45°22' E 036°42'0 0.0
2018-Jun-19 04:56N 45°22' E 036°42'0 0.0
2018-Jun-19 04:30N 45°22' E 036°42'0 0.0
2018-Jun-19 03:56N 45°22' E 036°42'0 0.0
2018-Jun-19 00:11N 45°22' E 036°42'0 0.0
2018-Jun-18 21:45N 45°22' E 036°42'0 0.0
2018-Jun-18 21:23N 45°22' E 036°42'0 0.0
2018-Jun-18 16:18N 45°22' E 036°42'0 0.0
2018-Jun-18 15:54N 45°22' E 036°42'0 0.0
2018-Jun-18 15:29N 45°22' E 036°42'0 0.0
2018-Jun-18 15:00N 45°22' E 036°42'0 0.0
2018-Jun-18 14:29N 45°22' E 036°42'0 0.0
2018-Jun-18 14:00N 45°22' E 036°42'0 0.0
2018-Jun-18 13:29N 45°22' E 036°42'0 0.0
2018-Jun-18 13:00N 45°22' E 036°42'0 0.0
2018-Jun-18 12:29N 45°22' E 036°42'0 0.0
2018-Jun-18 12:00N 45°22' E 036°42'0 0.0
2018-Jun-18 11:20N 45°22' E 036°42'0 0.0
2018-Jun-18 11:00N 45°22' E 036°42'0 0.0
2018-Jun-18 10:30N 45°22' E 036°42'0 0.0
2018-Jun-18 09:59N 45°22' E 036°42'0 0.0
2018-Jun-18 09:30N 45°22' E 036°42'0 0.0
2018-Jun-18 08:59N 45°22' E 036°42'0 0.0
2018-Jun-18 08:29N 45°22' E 036°42'0 0.0
2018-Jun-18 08:00N 45°22' E 036°42'0 0.0
2018-Jun-18 07:27N 45°22' E 036°42'0 0.0
2018-Jun-18 07:00N 45°22' E 036°42'0 0.0
2018-Jun-18 06:29N 45°22' E 036°42'0 0.0
2018-Jun-18 05:59N 45°22' E 036°42'0 0.0
2018-Jun-18 05:29N 45°22' E 036°42'0 0.0
2018-Jun-18 04:59N 45°22' E 036°42'0 0.0
2018-Jun-18 04:29N 45°22' E 036°42'0 0.0
2018-Jun-18 03:59N 45°22' E 036°42'0 0.0
2018-Jun-18 03:29N 45°22' E 036°42'0 0.0
2018-Jun-18 02:59N 45°22' E 036°42'0 0.0
2018-Jun-18 02:29N 45°22' E 036°42'0 0.0
2018-Jun-18 01:59N 45°22' E 036°42'0 0.0
2018-Jun-18 01:29N 45°22' E 036°42'0 0.0
2018-Jun-18 00:59N 45°22' E 036°42'0 0.0
2018-Jun-18 00:29N 45°22' E 036°42'0 0.0
2018-Jun-17 23:53N 45°22' E 036°42'0 0.0
2018-Jun-17 23:26N 45°22' E 036°42'0 0.0
2018-Jun-17 22:59N 45°22' E 036°42'0 0.0
2018-Jun-17 22:23N 45°22' E 036°42'0 0.0
2018-Jun-17 21:59N 45°22' E 036°42'0 0.0
2018-Jun-17 21:26N 45°22' E 036°42'0 0.0
2018-Jun-17 20:56N 45°22' E 036°42'0 0.0
2018-Jun-17 20:29N 45°22' E 036°42'0 0.0
2018-Jun-17 19:59N 45°22' E 036°42'0 0.0
2018-Jun-17 19:29N 45°22' E 036°42'0 0.0
2018-Jun-17 18:59N 45°22' E 036°42'0 0.0
2018-Jun-17 18:20N 45°22' E 036°42'0 0.0
2018-Jun-17 16:59N 45°22' E 036°42'0 0.0
2018-Jun-17 16:20N 45°22' E 036°42'0 0.0
2018-Jun-17 15:50N 45°22' E 036°42'0 0.0
2018-Jun-17 15:29N 45°22' E 036°42'0 0.0
2018-Jun-17 14:59N 45°22' E 036°42'0 0.0
2018-Jun-17 14:29N 45°22' E 036°42'0 0.0
2018-Jun-17 13:59N 45°22' E 036°42'0 0.0
2018-Jun-17 13:26N 45°22' E 036°42'0 0.0
2018-Jun-17 12:59N 45°22' E 036°42'0 0.0
2018-Jun-17 12:26N 45°22' E 036°42'0 0.0
2018-Jun-17 11:50N 45°22' E 036°42'0 0.0
2018-Jun-17 11:29N 45°22' E 036°42'0 0.0
2018-Jun-17 10:59N 45°22' E 036°42'0 0.0
2018-Jun-17 10:20N 45°22' E 036°42'0 0.0
2018-Jun-17 09:53N 45°22' E 036°42'0 0.0
2018-Jun-17 09:26N 45°22' E 036°42'0 0.0
2018-Jun-17 08:56N 45°22' E 036°41'0 0.0
2018-Jun-17 08:29N 45°22' E 036°41'0 0.0
2018-Jun-17 07:32N 45°22' E 036°42'0 0.0
2018-Jun-17 07:14N 45°22' E 036°42'0 0.0
2018-Jun-17 06:47N 45°22' E 036°41'0 0.0
2018-Jun-17 06:26N 45°22' E 036°41'0 0.0
2018-Jun-17 05:50N 45°22' E 036°42'0 0.0
2018-Jun-17 05:23N 45°22' E 036°42'0 0.0
2018-Jun-17 04:59N 45°22' E 036°42'0 0.0
2018-Jun-17 04:26N 45°22' E 036°42'0 0.0
2018-Jun-17 03:56N 45°22' E 036°42'0 0.0
2018-Jun-17 03:29N 45°22' E 036°42'0 0.0
2018-Jun-17 02:41N 45°22' E 036°42'0 0.1
2018-Jun-17 02:23N 45°22' E 036°42'0 0.0
2018-Jun-17 01:50N 45°22' E 036°42'0 0.0
2018-Jun-17 01:26N 45°22' E 036°42'0 0.0
2018-Jun-17 00:59N 45°22' E 036°42'0 0.0
2018-Jun-17 00:29N 45°22' E 036°42'0 0.0
2018-Jun-16 23:59N 45°22' E 036°42'0 0.0
2018-Jun-16 23:29N 45°22' E 036°42'0 0.0
2018-Jun-16 22:59N 45°22' E 036°42'0 0.0
2018-Jun-16 22:05N 45°22' E 036°42'0 0.1
2018-Jun-16 21:47N 45°22' E 036°42'0 0.0
2018-Jun-16 21:29N 45°22' E 036°42'0 0.0
2018-Jun-16 20:56N 45°22' E 036°42'0 0.0
2018-Jun-16 20:29N 45°22' E 036°42'0 0.0
2018-Jun-16 19:59N 45°22' E 036°42'0 0.0
2018-Jun-16 19:26N 45°22' E 036°42'0 0.0
2018-Jun-16 18:59N 45°22' E 036°42'0 0.1
2018-Jun-16 18:29N 45°22' E 036°42'0 0.0
2018-Jun-16 17:59N 45°22' E 036°42'0 0.1
2018-Jun-16 17:29N 45°22' E 036°42'0 0.1
2018-Jun-16 16:59N 45°22' E 036°42'0 0.1
2018-Jun-16 16:29N 45°22' E 036°42'0 0.0
2018-Jun-16 15:59N 45°22' E 036°42'0 0.1
2018-Jun-16 15:29N 45°22' E 036°42'0 0.1
2018-Jun-16 14:56N 45°22' E 036°42'0 0.1
2018-Jun-16 14:29N 45°22' E 036°42'0 0.0
2018-Jun-16 13:59N 45°22' E 036°42'0 0.1
2018-Jun-16 13:29N 45°22' E 036°42'0 0.0
2018-Jun-16 12:59N 45°22' E 036°42'0 0.0
2018-Jun-16 12:29N 45°22' E 036°42'0 0.0
2018-Jun-16 11:59N 45°22' E 036°42'0 0.0
2018-Jun-16 11:29N 45°22' E 036°42'0 0.0
2018-Jun-16 10:59N 45°22' E 036°42'0 0.0
2018-Jun-16 10:29N 45°22' E 036°42'0 0.1
2018-Jun-16 09:59N 45°22' E 036°42'0 0.0
2018-Jun-16 09:29N 45°22' E 036°42'0 0.1
2018-Jun-16 08:59N 45°22' E 036°42'0 0.1
2018-Jun-16 08:29N 45°22' E 036°42'0 0.0
2018-Jun-16 07:59N 45°22' E 036°42'0 0.0
2018-Jun-16 07:29N 45°22' E 036°42'0 0.0
2018-Jun-16 06:59N 45°22' E 036°42'0 0.0
2018-Jun-16 06:29N 45°22' E 036°42'0 0.0
2018-Jun-16 05:53N 45°22' E 036°42'0 0.0
2018-Jun-16 05:29N 45°22' E 036°42'0 0.0
2018-Jun-16 04:59N 45°22' E 036°42'0 0.0
2018-Jun-16 04:29N 45°22' E 036°42'1 1.9
2018-Jun-16 04:01N 45°22' E 036°41'2 4.7
2018-Jun-16 03:30N 45°20' E 036°38'2 5.0
2018-Jun-16 03:00N 45°19' E 036°35'3 5.4
2018-Jun-16 02:30N 45°19' E 036°31'2 5.0
2018-Jun-16 02:00N 45°17' E 036°29'2 3.9
2018-Jun-16 01:28N 45°15' E 036°29'1 2.3
2018-Jun-16 00:59N 45°14' E 036°30'0 0.1
2018-Jun-16 00:29N 45°14' E 036°30'0 0.0
2018-Jun-15 23:56N 45°14' E 036°30'0 0.0
2018-Jun-15 23:26N 45°14' E 036°30'0 0.0
2018-Jun-15 22:59N 45°14' E 036°30'0 0.0
2018-Jun-15 22:20N 45°14' E 036°30'0 0.0
2018-Jun-15 21:59N 45°14' E 036°30'0 0.0
2018-Jun-15 21:23N 45°14' E 036°30'0 0.0
2018-Jun-15 20:56N 45°14' E 036°30'0 0.0
2018-Jun-15 20:29N 45°14' E 036°30'0 0.0
2018-Jun-15 19:56N 45°14' E 036°30'0 0.0
2018-Jun-15 19:29N 45°14' E 036°30'0 0.1
2018-Jun-15 18:56N 45°14' E 036°30'0 0.0
2018-Jun-15 18:20N 45°14' E 036°30'0 0.0
2018-Jun-15 16:38N 45°14' E 036°30'0 0.0
2018-Jun-15 16:29N 45°14' E 036°30'0 0.0
2018-Jun-15 15:59N 45°14' E 036°30'0 0.0
2018-Jun-15 15:29N 45°14' E 036°30'0 0.0
2018-Jun-15 14:59N 45°14' E 036°30'0 0.0
2018-Jun-15 14:29N 45°14' E 036°30'0 0.1
2018-Jun-15 12:50N 45°14' E 036°30'6 2.4
2018-Jun-15 10:20N 45°09' E 036°34'0 0.0
2018-Jun-15 09:08N 45°09' E 036°34'0 0.0
2018-Jun-15 08:38N 45°09' E 036°34'0 0.1
2018-Jun-15 08:23N 45°08' E 036°34'0 0.0
2018-Jun-15 07:41N 45°09' E 036°34'0 0.0
2018-Jun-15 07:26N 45°09' E 036°34'0 0.0
2018-Jun-15 06:56N 45°09' E 036°34'0 0.0
2018-Jun-15 06:05N 45°09' E 036°34'0 0.0
2018-Jun-15 05:53N 45°09' E 036°34'0 0.0
2018-Jun-15 05:29N 45°09' E 036°34'0 0.0
2018-Jun-15 04:50N 45°09' E 036°34'0 0.0
2018-Jun-15 04:26N 45°09' E 036°34'0 0.1
2018-Jun-15 03:56N 45°08' E 036°34'0 0.0
2018-Jun-15 03:26N 45°08' E 036°34'0 0.0
2018-Jun-15 02:59N 45°08' E 036°34'0 0.0
2018-Jun-15 02:08N 45°08' E 036°34'0 0.0
2018-Jun-15 01:35N 45°08' E 036°34'0 0.0
2018-Jun-15 01:17N 45°08' E 036°34'3 0.7
2018-Jun-14 21:05N 45°11' E 036°32'0 1.4
2018-Jun-14 20:59N 45°11' E 036°32'0 0.1
2018-Jun-14 20:29N 45°11' E 036°32'0 0.0
2018-Jun-14 19:59N 45°11' E 036°32'0 0.0
2018-Jun-14 19:29N 45°11' E 036°32'0 0.0
2018-Jun-14 18:59N 45°11' E 036°32'0 0.0
2018-Jun-14 18:29N 45°11' E 036°32'0 0.0
2018-Jun-14 17:56N 45°11' E 036°32'0 0.0
2018-Jun-14 17:29N 45°11' E 036°32'0 0.0
2018-Jun-14 16:59N 45°11' E 036°32'0 0.0
2018-Jun-14 16:29N 45°11' E 036°32'0 0.0
2018-Jun-14 15:59N 45°11' E 036°32'0 0.0
2018-Jun-14 15:29N 45°11' E 036°32'0 0.0
2018-Jun-14 14:59N 45°11' E 036°32'0 0.0
2018-Jun-14 14:29N 45°11' E 036°32'0 0.0
2018-Jun-14 13:59N 45°11' E 036°32'0 0.0
2018-Jun-14 13:29N 45°11' E 036°32'0 0.0
2018-Jun-14 12:59N 45°11' E 036°32'0 0.0
2018-Jun-14 12:26N 45°11' E 036°32'0 0.0
2018-Jun-14 11:59N 45°11' E 036°32'0 0.0
2018-Jun-14 11:26N 45°11' E 036°32'0 0.0
2018-Jun-14 10:59N 45°11' E 036°32'0 0.0
2018-Jun-14 10:26N 45°11' E 036°32'0 0.0
2018-Jun-14 09:59N 45°11' E 036°32'0 0.0
2018-Jun-14 09:26N 45°11' E 036°32'0 0.0
2018-Jun-14 08:59N 45°11' E 036°32'0 0.0
2018-Jun-14 08:29N 45°11' E 036°32'0 0.0
2018-Jun-14 07:59N 45°11' E 036°32'0 0.0
2018-Jun-14 07:29N 45°11' E 036°32'0 0.0
2018-Jun-14 06:59N 45°11' E 036°32'0 0.0
2018-Jun-14 06:29N 45°11' E 036°32'0 0.0
2018-Jun-14 05:53N 45°11' E 036°32'0 0.0
2018-Jun-14 05:29N 45°11' E 036°32'0 0.0
2018-Jun-14 04:56N 45°11' E 036°32'0 0.0
2018-Jun-14 04:29N 45°11' E 036°32'0 0.0
2018-Jun-14 03:59N 45°11' E 036°32'0 0.0
2018-Jun-14 03:29N 45°11' E 036°32'0 0.0
2018-Jun-14 02:59N 45°11' E 036°32'0 0.0
2018-Jun-13 18:38N 45°11' E 036°32'0 0.0
2018-Jun-13 18:17N 45°11' E 036°32'0 0.0
2018-Jun-13 17:56N 45°11' E 036°32'0 0.0
2018-Jun-13 17:29N 45°11' E 036°32'0 0.1
2018-Jun-13 16:53N 45°11' E 036°32'0 0.1
2018-Jun-13 16:29N 45°11' E 036°32'0 0.0
2018-Jun-13 15:59N 45°11' E 036°32'0 0.0
2018-Jun-13 15:29N 45°11' E 036°32'0 0.0
2018-Jun-13 14:59N 45°11' E 036°32'0 0.0
2018-Jun-13 14:26N 45°11' E 036°32'0 0.0
2018-Jun-13 13:44N 45°11' E 036°32'0 0.0
2018-Jun-13 13:29N 45°11' E 036°32'0 0.0
2018-Jun-13 12:59N 45°11' E 036°32'0 0.0
2018-Jun-13 12:29N 45°11' E 036°32'0 0.0
2018-Jun-13 11:59N 45°11' E 036°32'0 0.0
2018-Jun-13 11:23N 45°11' E 036°32'0 0.0
2018-Jun-13 10:59N 45°11' E 036°32'0 0.0
2018-Jun-13 10:29N 45°11' E 036°32'0 0.0
2018-Jun-13 09:59N 45°11' E 036°32'0 0.0
2018-Jun-13 09:26N 45°11' E 036°32'0 0.0
2018-Jun-13 08:44N 45°11' E 036°32'0 0.0
2018-Jun-13 08:23N 45°11' E 036°32'0 0.0
2018-Jun-13 07:56N 45°11' E 036°32'0 0.0
2018-Jun-13 07:26N 45°11' E 036°32'0 0.0
2018-Jun-13 06:47N 45°11' E 036°32'0 0.0
2018-Jun-13 06:29N 45°11' E 036°32'0 0.0
2018-Jun-13 05:59N 45°11' E 036°32'0 0.0
2018-Jun-13 05:29N 45°11' E 036°32'0 0.0
2018-Jun-13 04:59N 45°11' E 036°32'0 0.0
2018-Jun-13 04:29N 45°11' E 036°32'0 0.0
2018-Jun-13 03:59N 45°11' E 036°32'0 0.0
2018-Jun-13 03:29N 45°11' E 036°32'0 0.1
2018-Jun-13 02:53N 45°11' E 036°32'0 0.0
2018-Jun-13 02:29N 45°11' E 036°32'0 0.0
2018-Jun-13 01:56N 45°11' E 036°32'0 0.0
2018-Jun-13 01:29N 45°11' E 036°32'0 0.0
2018-Jun-13 00:53N 45°11' E 036°32'0 0.0
2018-Jun-13 00:29N 45°11' E 036°32'0 0.0
2018-Jun-12 23:59N 45°11' E 036°32'0 0.0
2018-Jun-12 16:35N 45°11' E 036°32'0 0.0
2018-Jun-12 16:23N 45°11' E 036°32'0 0.0
2018-Jun-12 15:56N 45°11' E 036°32'0 0.0
2018-Jun-12 15:26N 45°11' E 036°32'0 0.0
2018-Jun-12 14:59N 45°11' E 036°32'0 0.0
2018-Jun-12 14:11N 45°11' E 036°32'0 0.0
2018-Jun-12 13:53N 45°11' E 036°32'0 0.0
2018-Jun-12 13:23N 45°11' E 036°32'0 0.0
2018-Jun-12 12:53N 45°11' E 036°32'0 0.0
2018-Jun-12 12:29N 45°11' E 036°32'0 0.0
2018-Jun-12 11:59N 45°11' E 036°32'0 0.0
2018-Jun-12 11:29N 45°11' E 036°32'0 0.0
2018-Jun-12 10:59N 45°11' E 036°32'0 0.0
2018-Jun-12 10:29N 45°11' E 036°32'0 0.0
2018-Jun-12 09:56N 45°11' E 036°32'0 0.0
2018-Jun-12 09:29N 45°11' E 036°32'0 0.0
2018-Jun-12 08:59N 45°11' E 036°32'0 0.0
2018-Jun-12 08:29N 45°11' E 036°32'0 0.0
2018-Jun-12 07:59N 45°11' E 036°32'0 0.0
2018-Jun-12 07:29N 45°11' E 036°32'0 0.0
2018-Jun-12 06:56N 45°11' E 036°32'0 0.0
2018-Jun-12 06:29N 45°11' E 036°32'0 0.0
2018-Jun-12 05:56N 45°11' E 036°32'0 0.0
2018-Jun-12 05:26N 45°11' E 036°32'0 0.0
2018-Jun-12 04:59N 45°11' E 036°32'0 0.0
2018-Jun-12 04:29N 45°11' E 036°32'0 0.0
2018-Jun-12 03:59N 45°11' E 036°32'0 0.0
2018-Jun-12 03:26N 45°11' E 036°32'0 0.0
2018-Jun-12 02:56N 45°11' E 036°32'0 0.0
2018-Jun-12 02:29N 45°11' E 036°32'0 0.0
2018-Jun-12 01:59N 45°11' E 036°32'0 0.0
2018-Jun-12 01:23N 45°11' E 036°32'0 0.0
2018-Jun-12 00:53N 45°11' E 036°32'0 0.0
2018-Jun-12 00:08N 45°11' E 036°32'0 0.0
2018-Jun-11 23:59N 45°11' E 036°32'0 0.0
2018-Jun-11 23:29N 45°11' E 036°32'0 0.0
2018-Jun-11 21:29N 45°11' E 036°32'0 0.0
2018-Jun-11 20:59N 45°11' E 036°32'0 0.0
2018-Jun-11 20:20N 45°11' E 036°32'0 0.0
2018-Jun-11 19:53N 45°11' E 036°32'0 0.0
2018-Jun-11 19:29N 45°11' E 036°32'0 0.0
2018-Jun-11 18:56N 45°11' E 036°32'0 0.0
2018-Jun-11 18:29N 45°11' E 036°32'0 0.0
2018-Jun-11 17:59N 45°11' E 036°32'0 0.0
2018-Jun-11 17:29N 45°11' E 036°32'0 0.0
2018-Jun-11 16:56N 45°11' E 036°32'0 0.0
2018-Jun-11 16:29N 45°11' E 036°32'0 0.0
2018-Jun-11 15:53N 45°11' E 036°32'0 0.0
2018-Jun-11 15:29N 45°11' E 036°32'0 0.0
2018-Jun-11 14:59N 45°11' E 036°32'0 0.0
2018-Jun-11 14:29N 45°11' E 036°32'0 0.0
2018-Jun-11 13:53N 45°11' E 036°32'0 0.0
2018-Jun-11 13:29N 45°11' E 036°32'0 0.0
2018-Jun-11 12:56N 45°11' E 036°32'0 0.0
2018-Jun-11 12:29N 45°11' E 036°32'0 0.0
2018-Jun-11 11:59N 45°11' E 036°32'0 0.0
2018-Jun-11 11:29N 45°11' E 036°32'0 0.0
2018-Jun-11 10:59N 45°11' E 036°32'0 0.0
2018-Jun-11 10:29N 45°11' E 036°32'  

Dump ship's entire track history